Time;durP1;ratioP1;P1;durP2;ratioP2;P2;SDS_P1;SDS_P2;PMS_P1;PMS_P2;Temp;Humidity;BMP_temperature;BMP_pressure;BME280_temperature;BME280_humidity;BME280_pressure;Samples;Min_cycle;Max_cycle;Signal;HPM_P1;HPM_P2
2020/12/06 00:01:05;;;;;;;4.30;2.15;;;21.00;50.90;;;;;;5126280;27;20370;-56
2020/12/06 00:03:32;;;;;;;3.30;2.08;;;21.00;50.90;;;;;;5126885;27;20501;-53
2020/12/06 00:05:57;;;;;;;4.32;1.90;;;21.00;50.90;;;;;;5121792;27;20038;-55
2020/12/06 00:08:23;;;;;;;3.65;1.90;;;20.90;50.80;;;;;;5129031;27;20031;-53
2020/12/06 00:10:49;;;;;;;2.80;1.80;;;20.90;50.80;;;;;;5125440;27;20381;-56
2020/12/06 00:13:14;;;;;;;3.17;2.00;;;21.00;51.00;;;;;;5123046;27;20027;-53
2020/12/06 00:15:40;;;;;;;3.17;1.90;;;21.00;50.90;;;;;;5122671;27;20026;-54
2020/12/06 00:18:05;;;;;;;3.78;2.10;;;21.00;50.90;;;;;;5130725;27;20212;-51
2020/12/06 00:20:31;;;;;;;3.50;2.28;;;20.90;50.90;;;;;;5125734;27;20035;-53
2020/12/06 00:22:57;;;;;;;3.50;2.20;;;20.90;50.90;;;;;;5122509;27;20110;-51
2020/12/06 00:25:23;;;;;;;3.33;2.00;;;20.90;50.90;;;;;;5120256;27;20035;-55
2020/12/06 00:27:48;;;;;;;3.28;2.03;;;20.90;50.90;;;;;;5126617;27;20573;-56
2020/12/06 00:30:14;;;;;;;2.90;1.90;;;20.90;50.90;;;;;;5119525;27;20035;-52
2020/12/06 00:32:40;;;;;;;3.33;1.90;;;20.90;50.90;;;;;;5125600;27;20168;-55
2020/12/06 00:35:10;;;;;;;3.10;1.90;;;20.90;50.90;;;;;;5123053;27;20150;-53
2020/12/06 00:37:36;;;;;;;;;;;20.90;50.90;;;;;;5123630;27;20465;-55
2020/12/06 00:40:04;;;;;;;2.70;1.73;;;20.90;50.90;;;;;;5120749;27;20347;-56
2020/12/06 00:42:30;;;;;;;3.13;1.80;;;20.90;50.90;;;;;;5128401;27;20486;-53
2020/12/06 00:44:55;;;;;;;3.63;1.80;;;20.80;50.80;;;;;;5126267;27;20038;-51
2020/12/06 00:47:21;;;;;;;3.35;2.08;;;20.80;50.80;;;;;;5124664;27;20054;-54
2020/12/06 00:49:46;;;;;;;2.75;1.88;;;20.80;50.90;;;;;;5126529;27;20100;-54
2020/12/06 00:52:12;;;;;;;4.28;2.05;;;20.80;50.90;;;;;;5126193;27;20488;-54
2020/12/06 00:54:38;;;;;;;4.47;2.03;;;20.80;50.90;;;;;;5119889;27;20032;-51
2020/12/06 00:57:04;;;;;;;2.72;1.90;;;20.80;50.90;;;;;;5121842;27;20030;-55
2020/12/06 00:59:29;;;;;;;5.57;2.10;;;20.80;50.90;;;;;;5125777;27;20027;-55
2020/12/06 01:01:55;;;;;;;3.53;1.52;;;20.70;50.90;;;;;;5126100;27;20056;-53
2020/12/06 01:04:20;;;;;;;2.65;1.80;;;20.70;50.90;;;;;;5124954;27;20069;-48
2020/12/06 01:06:46;;;;;;;2.85;1.58;;;20.70;50.90;;;;;;5121087;27;20038;-54
2020/12/06 01:09:12;;;;;;;3.40;1.70;;;20.70;50.90;;;;;;5127510;27;20034;-56
2020/12/06 01:11:37;;;;;;;2.75;1.80;;;20.70;50.90;;;;;;5121408;27;20064;-50
2020/12/06 01:14:03;;;;;;;3.17;1.83;;;20.70;50.90;;;;;;5125034;27;20113;-58
2020/12/06 01:16:29;;;;;;;2.50;1.67;;;20.70;50.90;;;;;;5125111;27;20035;-55
2020/12/06 01:18:54;;;;;;;3.05;1.83;;;20.60;50.80;;;;;;5124423;27;20026;-57
2020/12/06 01:21:20;;;;;;;3.53;1.83;;;20.70;51.00;;;;;;5116955;27;20558;-53
2020/12/06 01:23:45;;;;;;;3.00;1.50;;;20.60;50.90;;;;;;5125309;27;20061;-53
2020/12/06 01:26:12;;;;;;;3.10;1.95;;;20.60;50.90;;;;;;5118978;27;20040;-52
2020/12/06 01:28:38;;;;;;;2.65;1.95;;;20.60;50.90;;;;;;5115443;27;20039;-52
2020/12/06 01:31:09;;;;;;;2.53;1.65;;;20.60;50.90;;;;;;5125682;27;20365;-54
2020/12/06 01:33:35;;;;;;;2.65;1.55;;;20.60;50.90;;;;;;5121429;27;20508;-52
2020/12/06 01:36:00;;;;;;;2.60;1.70;;;20.60;50.90;;;;;;5122591;27;20023;-54
2020/12/06 01:38:26;;;;;;;3.13;1.80;;;20.60;50.90;;;;;;5126301;27;20447;-54
2020/12/06 01:40:51;;;;;;;2.75;1.70;;;20.60;50.90;;;;;;5117734;27;20039;-54
2020/12/06 01:43:17;;;;;;;2.70;1.80;;;20.60;50.90;;;;;;5146732;27;20445;-56
2020/12/06 01:45:43;;;;;;;2.67;1.90;;;20.60;51.50;;;;;;5121470;27;20312;-57
2020/12/06 01:48:09;;;;;;;2.92;1.70;;;20.50;50.90;;;;;;5124646;27;20137;-55
2020/12/06 01:50:39;;;;;;;3.03;1.95;;;20.50;50.90;;;;;;5124267;27;20028;-54
2020/12/06 01:53:07;;;;;;;3.03;1.75;;;20.50;50.90;;;;;;5136962;27;20070;-52
2020/12/06 01:55:33;;;;;;;2.83;1.70;;;20.50;50.90;;;;;;5123194;27;20058;-53
2020/12/06 01:58:09;;;;;;;2.40;1.63;;;20.50;50.90;;;;;;5127353;27;20102;-53
2020/12/06 02:00:36;;;;;;;3.05;1.92;;;20.50;51.00;;;;;;5127167;27;20035;-53
2020/12/06 02:03:03;;;;;;;3.28;1.73;;;20.50;50.90;;;;;;5125855;27;20345;-50
2020/12/06 02:05:29;;;;;;;2.58;1.50;;;20.40;50.90;;;;;;5116484;27;20034;-54
2020/12/06 02:07:59;;;;;;;2.42;1.67;;;20.50;51.00;;;;;;5119201;27;20637;-54
2020/12/06 02:10:29;;;;;;;2.88;1.67;;;20.40;51.00;;;;;;5126579;27;20088;-53
2020/12/06 02:12:56;;;;;;;2.53;1.70;;;20.40;51.00;;;;;;5126068;27;20224;-51
2020/12/06 02:15:22;;;;;;;3.13;1.73;;;20.40;51.00;;;;;;5121097;27;20604;-53
2020/12/06 02:17:48;;;;;;;2.80;1.80;;;20.40;51.00;;;;;;5117722;27;20385;-50
2020/12/06 02:20:14;;;;;;;2.60;1.70;;;20.40;51.00;;;;;;5116945;27;20119;-51
2020/12/06 02:22:40;;;;;;;2.78;1.75;;;20.40;51.00;;;;;;5118858;27;20027;-55
2020/12/06 02:25:06;;;;;;;2.38;1.60;;;20.40;51.00;;;;;;5124667;27;20031;-56
2020/12/06 02:27:32;;;;;;;3.13;1.90;;;20.40;51.00;;;;;;5115080;27;20172;-54
2020/12/06 02:29:58;;;;;;;2.50;1.55;;;20.40;51.00;;;;;;5111023;27;20462;-55
2020/12/06 02:32:23;;;;;;;2.33;1.52;;;20.30;51.00;;;;;;5124051;27;20027;-58
2020/12/06 02:34:49;;;;;;;2.60;1.40;;;20.40;51.00;;;;;;5123108;27;20027;-52
2020/12/06 02:37:15;;;;;;;2.63;1.67;;;20.30;51.00;;;;;;5130168;27;20118;-53
2020/12/06 02:39:41;;;;;;;2.58;1.67;;;20.40;51.10;;;;;;5131635;27;20068;-51
2020/12/06 02:42:07;;;;;;;2.45;1.42;;;20.30;51.00;;;;;;5111357;27;20401;-51
2020/12/06 02:44:32;;;;;;;2.67;1.60;;;20.30;51.00;;;;;;5122895;27;20035;-51
2020/12/06 02:46:59;;;;;;;2.47;1.58;;;20.30;51.00;;;;;;5118858;27;20049;-50
2020/12/06 02:49:25;;;;;;;2.50;1.50;;;20.30;51.10;;;;;;5126923;27;20050;-55
2020/12/06 02:51:51;;;;;;;2.83;1.45;;;20.30;51.10;;;;;;5115001;28;20114;-54
2020/12/06 02:54:17;;;;;;;3.28;1.80;;;20.30;51.10;;;;;;5120297;27;20117;-53
2020/12/06 02:56:42;;;;;;;2.58;1.50;;;20.30;51.60;;;;;;5118128;27;20030;-56
2020/12/06 02:59:08;;;;;;;2.30;1.50;;;20.30;51.10;;;;;;5124909;27;20554;-54
2020/12/06 03:01:33;;;;;;;3.65;1.70;;;20.30;51.10;;;;;;5123426;27;20031;-54
2020/12/06 03:03:59;;;;;;;2.55;1.58;;;20.30;51.10;;;;;;5121565;28;20039;-54
2020/12/06 03:06:25;;;;;;;2.72;1.60;;;20.30;51.10;;;;;;5118510;27;20094;-54
2020/12/06 03:08:51;;;;;;;2.30;1.50;;;20.30;51.10;;;;;;5125754;27;20110;-53
2020/12/06 03:11:17;;;;;;;2.60;1.50;;;20.20;51.10;;;;;;5119087;27;20449;-55
2020/12/06 03:13:43;;;;;;;2.75;1.70;;;20.20;51.10;;;;;;5107295;27;20034;-49
2020/12/06 03:16:09;;;;;;;2.30;1.48;;;20.20;51.10;;;;;;5115111;27;20145;-55
2020/12/06 03:18:34;;;;;;;2.33;1.52;;;20.20;51.10;;;;;;5109244;27;20103;-54
2020/12/06 03:21:00;;;;;;;2.60;1.50;;;20.20;51.20;;;;;;5119381;27;20452;-51
2020/12/06 03:23:26;;;;;;;2.30;1.50;;;20.20;51.20;;;;;;5122665;27;20050;-56
2020/12/06 03:25:52;;;;;;;3.08;1.15;;;20.20;51.20;;;;;;5122041;27;20027;-52
2020/12/06 03:28:18;;;;;;;1.83;1.27;;;20.20;51.20;;;;;;5123000;27;20031;-52
2020/12/06 03:30:43;;;;;;;1.92;1.40;;;20.20;51.20;;;;;;5123438;27;20596;-50
2020/12/06 03:33:09;;;;;;;2.20;1.35;;;20.20;51.20;;;;;;5129200;27;20478;-53
2020/12/06 03:35:35;;;;;;;2.35;1.42;;;20.20;51.70;;;;;;5119984;27;20394;-55
2020/12/06 03:38:00;;;;;;;2.80;1.60;;;20.10;51.20;;;;;;5118761;27;20023;-54
2020/12/06 03:40:26;;;;;;;1.77;1.33;;;20.20;51.20;;;;;;5128182;27;20027;-56
2020/12/06 03:42:53;;;;;;;2.30;1.50;;;20.20;51.20;;;;;;5123145;27;20533;-56
2020/12/06 03:45:19;;;;;;;2.25;1.30;;;20.10;51.20;;;;;;5108870;27;20042;-53
2020/12/06 03:47:45;;;;;;;1.67;1.17;;;20.10;51.20;;;;;;5114076;27;20130;-54
2020/12/06 03:50:11;;;;;;;1.83;1.20;;;20.10;51.20;;;;;;5124168;27;20023;-51
2020/12/06 03:52:37;;;;;;;2.22;1.33;;;20.10;51.20;;;;;;5131607;27;20492;-50
2020/12/06 03:55:03;;;;;;;1.85;1.30;;;20.10;51.20;;;;;;5130117;27;20046;-53
2020/12/06 03:57:28;;;;;;;1.55;1.10;;;20.10;51.20;;;;;;5123915;27;20454;-50
2020/12/06 03:59:54;;;;;;;1.70;1.10;;;20.10;51.20;;;;;;5123833;27;20061;-57
2020/12/06 04:02:19;;;;;;;2.00;1.20;;;20.10;51.30;;;;;;5128450;27;20039;-60
2020/12/06 04:04:45;;;;;;;2.40;1.30;;;20.10;51.30;;;;;;5125173;27;20052;-54
2020/12/06 04:07:11;;;;;;;2.58;1.10;;;20.10;51.30;;;;;;5123398;27;20453;-52
2020/12/06 04:09:36;;;;;;;2.00;1.30;;;20.10;51.30;;;;;;5116548;27;20037;-50
2020/12/06 04:12:02;;;;;;;2.03;1.30;;;20.00;51.30;;;;;;5113597;27;20121;-56
2020/12/06 04:14:28;;;;;;;2.17;1.38;;;20.00;51.30;;;;;;5122489;27;20024;-56
2020/12/06 04:16:53;;;;;;;2.20;1.30;;;20.10;51.30;;;;;;5124424;27;20114;-55
2020/12/06 04:19:19;;;;;;;2.03;1.30;;;20.10;51.20;;;;;;5126786;27;20038;-54
2020/12/06 04:21:45;;;;;;;2.50;1.45;;;20.10;51.30;;;;;;5124909;27;20024;-55
2020/12/06 04:24:12;;;;;;;2.47;1.40;;;20.00;51.30;;;;;;5117940;27;20509;-55
2020/12/06 04:26:38;;;;;;;1.80;1.25;;;20.00;51.30;;;;;;5111503;27;20377;-50
2020/12/06 04:29:04;;;;;;;1.80;1.30;;;20.00;51.30;;;;;;5122247;27;20118;-55
2020/12/06 04:31:30;;;;;;;2.00;1.30;;;20.00;51.30;;;;;;5117117;27;20111;-57
2020/12/06 04:33:56;;;;;;;2.13;1.40;;;20.00;51.30;;;;;;5124901;27;20023;-52
2020/12/06 04:36:21;;;;;;;2.20;1.40;;;20.00;51.30;;;;;;5126151;27;20023;-52
2020/12/06 04:38:47;;;;;;;1.73;1.27;;;20.00;51.30;;;;;;5136746;27;20038;-56
2020/12/06 04:41:13;;;;;;;2.25;1.30;;;20.00;51.30;;;;;;5135201;27;20042;-51
2020/12/06 04:43:39;;;;;;;2.15;1.30;;;20.00;51.30;;;;;;5125739;27;20522;-54
2020/12/06 04:46:05;;;;;;;1.85;1.35;;;20.00;51.30;;;;;;5119518;27;20023;-54
2020/12/06 04:48:46;;;;;;;1.95;1.30;;;20.00;51.30;;;;;;5131579;27;20042;-55
2020/12/06 04:51:14;;;;;;;1.73;1.15;;;20.00;51.40;;;;;;5124034;27;20058;-54
2020/12/06 04:53:45;;;;;;;1.95;1.30;;;20.00;51.40;;;;;;5122465;27;20769;-54
2020/12/06 04:56:11;;;;;;;2.15;1.48;;;20.00;51.40;;;;;;5122239;27;20510;-56
2020/12/06 04:58:40;;;;;;;1.77;1.17;;;20.00;51.40;;;;;;5128788;27;20126;-50
2020/12/06 05:01:06;;;;;;;2.05;1.40;;;20.00;51.50;;;;;;5128905;27;20066;-54
2020/12/06 05:03:34;;;;;;;1.70;1.27;;;20.00;51.50;;;;;;5141313;27;20070;-54
2020/12/06 05:06:00;;;;;;;2.08;1.17;;;20.00;51.50;;;;;;5114747;27;20031;-54
2020/12/06 05:08:29;;;;;;;2.10;1.25;;;19.90;51.40;;;;;;5127609;27;20330;-54
2020/12/06 05:10:55;;;;;;;1.85;1.23;;;19.90;51.40;;;;;;5123520;27;20034;-54
2020/12/06 05:13:21;;;;;;;2.00;1.45;;;19.90;51.50;;;;;;5095827;27;20027;-53
2020/12/06 05:15:47;;;;;;;2.05;1.38;;;19.90;51.50;;;;;;5117927;27;20176;-56
2020/12/06 05:18:13;;;;;;;1.70;1.20;;;19.90;51.50;;;;;;5123795;27;20050;-58
2020/12/06 05:20:38;;;;;;;1.92;1.27;;;19.90;51.50;;;;;;5124232;27;20060;-54
2020/12/06 05:23:04;;;;;;;1.75;1.20;;;19.90;51.50;;;;;;5144310;27;20058;-55
2020/12/06 05:25:29;;;;;;;2.13;1.40;;;19.90;51.50;;;;;;5122513;27;20046;-58
2020/12/06 05:27:55;;;;;;;2.30;1.40;;;19.90;51.50;;;;;;5117748;27;20099;-55
2020/12/06 05:30:21;;;;;;;1.63;1.20;;;19.90;51.50;;;;;;5120320;27;20038;-50
2020/12/06 05:32:47;;;;;;;2.70;1.40;;;19.90;51.50;;;;;;5128203;27;20016;-51
2020/12/06 05:35:13;;;;;;;2.03;1.30;;;19.90;51.60;;;;;;5124584;27;20134;-49
2020/12/06 05:37:40;;;;;;;2.00;1.30;;;19.90;51.50;;;;;;5125925;27;20045;-54
2020/12/06 05:40:11;;;;;;;2.20;1.30;;;19.90;51.60;;;;;;5126596;27;20030;-55
2020/12/06 05:42:40;;;;;;;1.98;1.38;;;19.90;52.10;;;;;;5127265;27;20046;-51
2020/12/06 05:45:05;;;;;;;1.90;1.30;;;19.90;51.60;;;;;;5123230;27;20458;-53
2020/12/06 05:47:31;;;;;;;2.03;1.27;;;19.90;51.60;;;;;;5119992;27;20024;-54
2020/12/06 05:49:58;;;;;;;1.90;1.33;;;19.90;51.60;;;;;;5125035;27;20122;-58
2020/12/06 05:52:24;;;;;;;1.80;1.30;;;19.90;51.60;;;;;;5125302;27;20074;-52
2020/12/06 05:54:50;;;;;;;1.58;1.13;;;19.90;51.70;;;;;;5115351;27;20031;-51
2020/12/06 05:57:16;;;;;;;2.10;1.50;;;19.90;51.60;;;;;;5118503;27;20033;-52
2020/12/06 05:59:43;;;;;;;2.28;1.33;;;19.90;51.60;;;;;;5120586;27;20138;-54
2020/12/06 06:02:08;;;;;;;2.00;1.40;;;19.90;51.70;;;;;;5108418;27;20359;-55
2020/12/06 06:04:40;;;;;;;1.80;1.20;;;19.90;51.70;;;;;;5107474;27;20031;-56
2020/12/06 06:07:20;;;;;;;2.20;1.27;;;19.90;51.70;;;;;;5123895;27;20092;-54
2020/12/06 06:09:56;;;;;;;2.08;1.38;;;19.90;51.70;;;;;;5115330;27;20058;-52
2020/12/06 06:12:24;;;;;;;1.98;1.27;;;19.80;51.60;;;;;;5119920;27;20341;-51
2020/12/06 06:14:52;;;;;;;2.17;1.50;;;19.90;51.70;;;;;;5123386;27;20100;-52
2020/12/06 06:17:18;;;;;;;2.10;1.30;;;19.90;51.70;;;;;;5116931;27;20058;-50
2020/12/06 06:19:47;;;;;;;1.40;1.10;;;19.90;51.70;;;;;;5123925;27;20160;-55
2020/12/06 06:22:15;;;;;;;2.22;1.40;;;19.90;51.70;;;;;;5109928;27;20027;-55
2020/12/06 06:24:41;;;;;;;1.73;1.23;;;19.90;51.70;;;;;;5110061;27;20043;-54
2020/12/06 06:27:07;;;;;;;2.00;1.40;;;19.90;51.70;;;;;;5111733;27;20130;-52
2020/12/06 06:29:33;;;;;;;2.22;1.50;;;19.90;51.80;;;;;;5114923;27;20043;-56
2020/12/06 06:31:59;;;;;;;2.40;1.35;;;19.90;51.70;;;;;;5113726;27;20138;-57
2020/12/06 06:34:29;;;;;;;2.72;1.60;;;19.90;51.80;;;;;;5122603;27;20016;-52
2020/12/06 06:36:54;;;;;;;2.65;1.63;;;19.90;52.30;;;;;;5117998;27;20023;-56
2020/12/06 06:39:22;;;;;;;2.85;1.80;;;19.80;51.70;;;;;;5116365;27;20100;-54
2020/12/06 06:41:58;;;;;;;3.28;1.90;;;19.90;51.80;;;;;;5122953;27;20039;-54
2020/12/06 06:44:26;;;;;;;3.15;1.90;;;19.80;51.80;;;;;;5118350;27;20480;-58
2020/12/06 06:46:52;;;;;;;3.47;1.92;;;19.90;51.80;;;;;;5117142;27;20033;-53
2020/12/06 06:49:19;;;;;;;3.35;1.98;;;19.90;51.90;;;;;;5122933;27;20023;-56
2020/12/06 06:51:54;;;;;;;4.05;2.00;;;19.90;51.80;;;;;;5119793;27;20023;-56
2020/12/06 06:54:28;;;;;;;2.78;2.08;;;19.90;51.90;;;;;;5118256;27;20033;-53
2020/12/06 06:56:55;;;;;;;3.72;2.28;;;19.90;51.80;;;;;;5134907;27;20061;-53
2020/12/06 06:59:58;;;;;;;4.55;2.30;;;19.90;51.90;;;;;;5132406;27;20072;-52
2020/12/06 07:02:37;;;;;;;5.07;2.80;;;19.90;51.90;;;;;;5116989;27;20444;-56
2020/12/06 07:05:07;;;;;;;;;;;19.80;51.80;;;;;;5126676;27;20018;-53
2020/12/06 07:07:50;;;;;;;6.65;3.35;;;19.80;51.80;;;;;;5139187;27;19911;-55
2020/12/06 07:10:18;;;;;;;5.60;3.60;;;19.80;51.80;;;;;;5134091;27;20046;-52
2020/12/06 07:12:50;;;;;;;6.20;3.72;;;19.80;51.80;;;;;;5121588;27;20040;-53
2020/12/06 07:15:20;;;;;;;8.48;4.22;;;19.80;51.80;;;;;;5125581;27;20027;-54
2020/12/06 07:17:47;;;;;;;6.47;4.15;;;19.80;51.80;;;;;;5128864;27;20019;-48
2020/12/06 07:20:14;;;;;;;6.35;4.10;;;19.80;51.80;;;;;;5129282;27;21598;-50
2020/12/06 07:22:41;;;;;;;8.85;4.80;;;19.80;51.80;;;;;;5133408;27;20031;-52
2020/12/06 07:25:09;;;;;;;8.68;5.05;;;19.80;51.90;;;;;;5129076;27;20030;-55
2020/12/06 07:27:34;;;;;;;9.07;5.05;;;19.80;51.90;;;;;;5122994;27;20031;-53
2020/12/06 07:30:01;;;;;;;8.35;5.13;;;19.80;51.80;;;;;;5125012;27;20449;-51
2020/12/06 07:32:27;;;;;;;9.07;5.43;;;19.80;51.90;;;;;;5130762;27;20027;-58
2020/12/06 07:34:52;;;;;;;10.13;5.32;;;19.80;51.90;;;;;;5133020;27;20030;-53
2020/12/06 07:37:18;;;;;;;8.80;4.72;;;19.80;51.90;;;;;;5118796;27;20082;-51
2020/12/06 07:39:45;;;;;;;7.68;4.75;;;19.80;51.90;;;;;;5126601;27;20034;-49
2020/12/06 07:42:18;;;;;;;7.88;4.68;;;19.80;51.90;;;;;;5130600;27;20478;-55
2020/12/06 07:44:45;;;;;;;9.00;5.10;;;19.80;51.90;;;;;;5136819;27;20034;-53
2020/12/06 07:47:11;;;;;;;9.40;5.47;;;19.80;51.90;;;;;;5114080;27;20027;-53
2020/12/06 07:49:41;;;;;;;7.18;5.05;;;19.80;51.90;;;;;;5135932;27;20033;-52
2020/12/06 07:52:18;;;;;;;8.23;5.13;;;19.80;51.90;;;;;;5129194;27;20422;-52
2020/12/06 07:55:04;;;;;;;9.68;5.53;;;19.80;51.90;;;;;;5124434;27;20026;-52
2020/12/06 07:57:39;;;;;;;9.48;5.35;;;19.80;51.90;;;;;;5128154;27;20034;-55
2020/12/06 08:00:12;;;;;;;9.48;5.32;;;19.80;51.90;;;;;;5127162;27;20019;-59
2020/12/06 08:02:42;;;;;;;8.65;5.53;;;19.80;51.90;;;;;;5123214;27;20421;-52
2020/12/06 08:05:11;;;;;;;9.25;5.10;;;19.80;51.90;;;;;;5120970;27;20039;-53
2020/12/06 08:07:40;;;;;;;;;;;19.80;51.90;;;;;;5114026;27;20035;-55
2020/12/06 08:10:10;;;;;;;10.83;4.80;;;19.80;51.90;;;;;;5122848;27;19916;-52
2020/12/06 08:12:37;;;;;;;10.10;5.53;;;19.80;51.90;;;;;;5119551;27;20133;-49
2020/12/06 08:15:06;;;;;;;8.23;4.65;;;19.80;51.90;;;;;;5111588;27;20331;-56
2020/12/06 08:17:49;;;;;;;10.30;5.63;;;19.80;51.90;;;;;;5119852;27;20023;-54
2020/12/06 08:20:20;;;;;;;8.18;4.82;;;19.80;51.90;;;;;;5113553;27;20032;-51
2020/12/06 08:22:56;;;;;;;8.65;5.45;;;19.80;52.00;;;;;;5139444;27;20027;-50
2020/12/06 08:25:30;;;;;;;11.07;6.05;;;19.80;52.00;;;;;;5123217;27;20144;-51
2020/12/06 08:27:57;;;;;;;8.82;5.55;;;19.80;52.00;;;;;;5109034;27;20028;-55
2020/12/06 08:30:27;;;;;;;9.18;5.60;;;19.80;52.00;;;;;;5129408;27;20323;-52
2020/12/06 08:33:01;;;;;;;10.43;5.75;;;19.80;52.00;;;;;;5137333;27;20030;-55
2020/12/06 08:35:46;;;;;;;10.98;5.53;;;19.80;52.00;;;;;;5110501;27;20472;-55
2020/12/06 08:38:21;;;;;;;10.80;5.70;;;19.80;52.00;;;;;;5114491;27;20031;-53
2020/12/06 08:40:59;;;;;;;8.93;5.43;;;19.80;52.00;;;;;;5120258;27;20046;-54
2020/12/06 08:43:46;;;;;;;10.70;6.18;;;19.80;52.00;;;;;;5127713;27;20027;-53
2020/12/06 08:46:13;;;;;;;8.77;5.60;;;19.70;52.00;;;;;;5115759;27;20035;-53
2020/12/06 08:48:40;;;;;;;10.30;5.57;;;19.70;52.00;;;;;;5122018;27;20473;-51
2020/12/06 08:51:06;;;;;;;8.95;6.18;;;19.70;52.00;;;;;;5128861;27;20027;-52
2020/12/06 08:53:45;;;;;;;8.35;5.85;;;19.70;52.00;;;;;;5116925;27;20023;-54
2020/12/06 08:56:36;;;;;;;9.13;6.07;;;19.80;52.20;;;;;;5119444;27;20051;-57
2020/12/06 08:59:11;;;;;;;9.65;5.65;;;19.80;52.20;;;;;;5127701;27;20373;-55
2020/12/06 09:01:51;;;;;;;9.60;5.57;;;19.80;52.20;;;;;;5115109;27;20114;-54
2020/12/06 09:04:17;;;;;;;9.35;5.82;;;19.80;52.20;;;;;;5123366;27;20019;-51
2020/12/06 09:06:43;;;;;;;8.65;5.47;;;19.70;52.20;;;;;;5123557;27;20039;-53
2020/12/06 09:09:09;;;;;;;10.30;5.70;;;19.70;52.70;;;;;;5132053;27;20056;-55
2020/12/06 09:11:35;;;;;;;12.20;6.00;;;19.80;52.30;;;;;;5133356;27;20034;-51
2020/12/06 09:14:00;;;;;;;9.25;5.57;;;19.70;52.40;;;;;;5129347;27;20107;-49
2020/12/06 09:16:26;;;;;;;9.30;5.97;;;19.70;52.40;;;;;;5121184;27;20445;-50
2020/12/06 09:18:52;;;;;;;10.98;5.90;;;19.80;52.50;;;;;;5120808;27;20026;-52
2020/12/06 09:21:18;;;;;;;10.73;5.50;;;19.70;52.40;;;;;;5121499;27;20050;-52
2020/12/06 09:23:45;;;;;;;9.10;5.30;;;19.70;52.40;;;;;;5123066;27;20015;-56
2020/12/06 09:26:10;;;;;;;8.65;5.60;;;19.70;52.50;;;;;;5129578;27;20057;-53
2020/12/06 09:28:36;;;;;;;9.25;5.82;;;19.70;52.50;;;;;;5124842;27;20076;-54
2020/12/06 09:31:02;;;;;;;9.30;5.95;;;19.70;52.50;;;;;;5113752;27;20831;-57
2020/12/06 09:33:27;;;;;;;10.50;5.82;;;19.70;52.60;;;;;;5116544;27;20105;-51
2020/12/06 09:35:53;;;;;;;10.05;6.07;;;19.80;52.80;;;;;;5118630;27;20125;-57
2020/12/06 09:38:19;;;;;;;9.98;6.45;;;19.80;52.80;;;;;;5121503;27;20024;-54
2020/12/06 09:40:45;;;;;;;11.85;6.65;;;19.90;52.90;;;;;;5124323;27;20461;-55
2020/12/06 09:43:11;;;;;;;12.40;6.82;;;19.90;52.90;;;;;;5121705;27;20030;-56
2020/12/06 09:45:38;;;;;;;12.25;6.65;;;20.00;52.90;;;;;;5106713;27;20142;-55
2020/12/06 09:48:04;;;;;;;10.75;5.90;;;20.00;52.80;;;;;;5123845;27;20035;-57
2020/12/06 09:50:29;;;;;;;13.15;5.90;;;20.00;52.80;;;;;;5126839;27;20092;-54
2020/12/06 09:52:55;;;;;;;10.70;6.07;;;20.10;52.80;;;;;;5116511;27;20038;-54
2020/12/06 09:55:21;;;;;;;10.07;6.00;;;20.10;52.90;;;;;;5109737;27;20042;-53
2020/12/06 09:57:47;;;;;;;9.43;5.00;;;20.20;53.00;;;;;;5120016;27;20532;-52
2020/12/06 10:00:12;;;;;;;12.77;6.03;;;20.20;52.80;;;;;;5118236;27;20485;-55
2020/12/06 10:02:38;;;;;;;9.35;5.70;;;20.20;52.90;;;;;;5109714;27;20019;-54
2020/12/06 10:05:04;;;;;;;11.38;6.00;;;20.30;52.90;;;;;;5119115;27;20065;-49
2020/12/06 10:07:30;;;;;;;9.25;5.75;;;20.30;52.90;;;;;;5107029;27;20020;-53
2020/12/06 10:09:55;;;;;;;8.73;5.65;;;20.30;52.90;;;;;;5115905;27;20031;-55
2020/12/06 10:12:21;;;;;;;10.30;5.32;;;20.40;52.90;;;;;;5122088;27;20262;-54
2020/12/06 10:14:47;;;;;;;8.90;5.25;;;20.40;52.90;;;;;;5108724;27;20031;-50
2020/12/06 10:17:12;;;;;;;8.15;5.38;;;20.40;52.90;;;;;;5117767;27;20023;-54
2020/12/06 10:19:38;;;;;;;9.20;5.53;;;20.40;52.90;;;;;;5120933;27;20449;-59
2020/12/06 10:22:04;;;;;;;11.38;6.40;;;20.30;52.90;;;;;;5119428;27;20540;-52
2020/12/06 10:24:30;;;;;;;9.98;6.25;;;20.40;53.00;;;;;;5122062;27;20051;-55
2020/12/06 10:26:56;;;;;;;9.65;5.72;;;20.30;53.00;;;;;;5115549;27;20470;-57
2020/12/06 10:29:22;;;;;;;10.32;5.82;;;20.30;53.00;;;;;;5121002;27;20280;-54
2020/12/06 10:31:49;;;;;;;10.77;5.40;;;20.30;53.10;;;;;;5139345;27;20098;-52
2020/12/06 10:34:15;;;;;;;9.20;5.63;;;20.30;53.10;;;;;;5129566;27;20159;-54
2020/12/06 10:36:41;;;;;;;10.88;5.90;;;20.30;53.20;;;;;;5118417;27;20522;-56
2020/12/06 10:39:06;;;;;;;8.85;5.45;;;20.30;53.10;;;;;;5115257;27;20083;-51
2020/12/06 10:41:32;;;;;;;10.35;6.07;;;20.40;53.60;;;;;;5114393;27;20043;-58
2020/12/06 10:43:57;;;;;;;10.95;6.20;;;20.40;53.90;;;;;;5114643;27;20031;-50
2020/12/06 10:46:27;;;;;;;10.40;5.60;;;20.50;53.80;;;;;;5113039;27;20047;-49
2020/12/06 10:48:53;;;;;;;10.45;5.88;;;20.50;53.60;;;;;;5115088;27;20043;-59
2020/12/06 10:51:19;;;;;;;10.90;5.60;;;20.60;53.70;;;;;;5107412;28;20222;-56
2020/12/06 10:53:44;;;;;;;9.23;5.75;;;20.60;53.70;;;;;;5115916;27;20035;-54
2020/12/06 10:56:10;;;;;;;9.90;5.70;;;20.60;53.70;;;;;;5115739;27;20927;-53
2020/12/06 10:58:36;;;;;;;10.35;5.63;;;20.60;53.80;;;;;;5123532;27;20029;-51
2020/12/06 11:01:02;;;;;;;12.65;5.68;;;20.60;53.90;;;;;;5115774;27;20022;-59
2020/12/06 11:03:28;;;;;;;12.88;7.13;;;20.60;53.80;;;;;;5121206;27;20114;-55
2020/12/06 11:05:54;;;;;;;12.93;7.05;;;20.60;54.00;;;;;;5128266;27;20110;-53
2020/12/06 11:08:21;;;;;;;12.02;7.00;;;20.80;54.00;;;;;;5114206;27;20043;-57
2020/12/06 11:10:47;;;;;;;14.50;7.55;;;20.90;53.70;;;;;;5109173;27;20424;-54
2020/12/06 11:13:12;;;;;;;8.63;5.45;;;21.00;53.20;;;;;;5111092;27;20034;-52
2020/12/06 11:15:38;;;;;;;9.10;4.45;;;21.00;53.10;;;;;;5116031;27;20362;-57
2020/12/06 11:18:03;;;;;;;10.15;5.47;;;21.10;53.20;;;;;;5114707;27;20035;-54
2020/12/06 11:20:29;;;;;;;11.18;5.68;;;21.00;53.00;;;;;;5116627;27;20034;-54
2020/12/06 11:22:55;;;;;;;9.88;5.53;;;21.00;53.10;;;;;;5112850;27;20123;-50
2020/12/06 11:25:20;;;;;;;8.43;5.03;;;21.00;53.10;;;;;;5111767;27;20039;-53
2020/12/06 11:27:46;;;;;;;8.88;5.45;;;21.00;53.10;;;;;;5109570;27;20649;-55
2020/12/06 11:30:11;;;;;;;8.52;4.85;;;20.90;53.10;;;;;;5124059;27;20027;-51
2020/12/06 11:32:37;;;;;;;7.65;4.47;;;21.00;53.10;;;;;;5118299;27;20040;-53
2020/12/06 11:35:03;;;;;;;9.52;4.72;;;20.90;53.10;;;;;;5114539;28;20765;-56
2020/12/06 11:37:28;;;;;;;7.82;4.68;;;21.00;53.10;;;;;;5114862;27;20033;-56
2020/12/06 11:39:54;;;;;;;7.88;4.80;;;20.90;53.00;;;;;;5122671;27;20035;-55
2020/12/06 11:42:19;;;;;;;8.57;4.63;;;21.00;53.00;;;;;;5124955;27;20030;-55
2020/12/06 11:44:45;;;;;;;7.15;4.32;;;21.00;53.00;;;;;;5117910;27;20042;-51
2020/12/06 11:47:10;;;;;;;8.10;4.78;;;21.00;52.90;;;;;;5122091;27;20055;-56
2020/12/06 11:49:36;;;;;;;7.18;4.53;;;21.00;52.80;;;;;;5130287;27;20126;-54
2020/12/06 11:52:03;;;;;;;8.32;4.80;;;21.00;52.70;;;;;;5132602;27;20106;-57
2020/12/06 11:54:29;;;;;;;8.88;4.70;;;21.00;52.70;;;;;;5121245;27;20054;-54
2020/12/06 11:56:55;;;;;;;8.43;4.38;;;21.00;52.60;;;;;;5116947;27;20035;-57
2020/12/06 11:59:21;;;;;;;8.23;4.90;;;21.00;52.60;;;;;;5119721;27;20096;-57
2020/12/06 12:01:46;;;;;;;8.23;4.93;;;21.10;53.00;;;;;;5119649;27;20027;-53
2020/12/06 12:04:12;;;;;;;8.75;4.93;;;21.10;52.50;;;;;;5119510;27;20037;-56
2020/12/06 12:06:38;;;;;;;10.10;5.90;;;21.10;52.40;;;;;;5111549;27;20027;-57
2020/12/06 12:09:04;;;;;;;12.20;7.10;;;21.10;52.50;;;;;;5119596;27;20027;-55
2020/12/06 12:11:29;;;;;;;14.30;7.53;;;21.30;52.60;;;;;;5133006;27;20031;-52
2020/12/06 12:13:55;;;;;;;12.60;7.05;;;21.40;52.20;;;;;;5118091;27;20155;-58
2020/12/06 12:16:22;;;;;;;12.85;7.20;;;21.60;51.90;;;;;;5112942;27;20036;-52
2020/12/06 12:18:48;;;;;;;10.38;5.97;;;21.60;51.80;;;;;;5130217;27;20042;-57
2020/12/06 12:21:13;;;;;;;9.68;6.15;;;21.60;52.00;;;;;;5126122;27;20024;-58
2020/12/06 12:23:39;;;;;;;11.73;6.30;;;21.50;52.30;;;;;;5119797;27;20035;-54
2020/12/06 12:26:05;;;;;;;10.57;6.30;;;21.50;52.40;;;;;;5125848;27;20058;-57
2020/12/06 12:28:30;;;;;;;14.75;7.78;;;21.50;52.60;;;;;;5113769;27;20422;-54
2020/12/06 12:30:56;;;;;;;10.65;6.50;;;21.60;52.90;;;;;;5124550;27;20037;-52
2020/12/06 12:33:21;;;;;;;11.55;6.70;;;21.70;52.40;;;;;;5121499;27;20034;-57
2020/12/06 12:35:49;;;;;;;11.38;6.15;;;21.70;52.40;;;;;;5106597;27;20180;-60
2020/12/06 12:38:15;;;;;;;11.13;6.70;;;21.70;52.70;;;;;;5119155;27;20031;-55
2020/12/06 12:40:40;;;;;;;12.27;7.13;;;21.70;52.30;;;;;;5112680;27;20023;-57
2020/12/06 12:43:06;;;;;;;11.68;7.18;;;21.70;52.30;;;;;;5117055;27;20058;-55
2020/12/06 12:45:32;;;;;;;9.48;6.13;;;21.70;52.30;;;;;;5128327;27;20038;-57